Windsor, Kentucky
Current Conditions -  °F | °C
As of 6:15 PM on Thursday 27 Nov 2014 (Local Time) from KSME Reporting Station
Overcast Overcast  
Wind Chill: 22°   Ceiling: 3300
Heat Index: 30°   Visibility: 10mi
Dew Point: 23°   Wind: 9mph
Humidity: 75%   Direction: 300°WNW
Pressure: 30.4"   Gusts: NA
Location:  37.13°N, 84.91°W
Report Text: KSME 272315Z AUTO 30008KT 10SM OVC033 M01/M05 A3040 RMK AO2
Loading
Personal Weather Stations






























Interactive Weather Map New forecast layout! Learn more

10-Day Weather Forecast

Advertisements
Track Severe Weather on mobile